Time;durP1;ratioP1;P1;durP2;ratioP2;P2;SDS_P1;SDS_P2;PMS_P1;PMS_P2;Temp;Humidity;BMP_temperature;BMP_pressure;BME280_temperature;BME280_humidity;BME280_pressure;Samples;Min_cycle;Max_cycle;Signal;HPM_P1;HPM_P2
2022/05/05 00:01:32;;;;;;;;;5.00;4.00;;;;;14.68;58.20;101268.38;5080334;27;45512;-81
2022/05/05 00:03:58;;;;;;;;;11.00;8.50;;;;;14.66;58.13;101264.00;5077187;28;46704;-83
2022/05/05 00:06:23;;;;;;;;;11.50;8.00;;;;;14.64;57.94;101274.69;5076801;27;45478;-82
2022/05/05 00:08:48;;;;;;;;;10.50;9.00;;;;;14.63;57.88;101264.94;5077571;27;45422;-82
2022/05/05 00:16:41;;;;;;;;;3.00;1.00;;;;;14.56;57.84;101269.53;5057493;28;45501;-81
2022/05/05 00:19:07;;;;;;;;;9.25;7.50;;;;;14.55;57.91;101277.53;5055700;28;45500;-82
2022/05/05 00:21:32;;;;;;;;;5.50;5.00;;;;;14.55;57.42;101282.88;5063526;28;45620;-82
2022/05/05 00:23:57;;;;;;;;;4.00;4.00;;;;;14.52;57.71;101272.31;5075979;27;46053;-82
2022/05/05 00:26:23;;;;;;;;;7.00;6.25;;;;;14.42;58.12;101271.63;5062395;28;45437;-82
2022/05/05 00:28:48;;;;;;;;;9.50;8.25;;;;;14.39;58.70;101279.69;5059898;28;45422;-81
2022/05/05 00:31:13;;;;;;;;;9.00;4.00;;;;;14.36;58.56;101278.00;5059754;28;45363;-82
2022/05/05 00:33:39;;;;;;;;;13.00;10.00;;;;;14.33;58.63;101277.19;5058009;28;45425;-82
2022/05/05 00:36:05;;;;;;;;;9.50;7.00;;;;;14.30;59.14;101278.16;5056871;28;46554;-83
2022/05/05 00:38:31;;;;;;;;;3.00;0.00;;;;;14.28;59.21;101279.09;5058538;28;45430;-82
2022/05/05 00:40:56;;;;;;;;;8.50;8.50;;;;;14.20;59.09;101271.31;5059485;28;45402;-82
2022/05/05 00:43:23;;;;;;;;;7.00;7.00;;;;;14.12;59.04;101273.25;5057891;28;45497;-82
2022/05/05 00:45:48;;;;;;;;;10.00;10.00;;;;;14.12;59.55;101271.50;5057648;28;45450;-81
2022/05/05 00:48:14;;;;;;;;;9.25;9.25;;;;;14.09;59.35;101262.69;5058748;28;45394;-82
2022/05/05 00:50:40;;;;;;;;;4.00;4.00;;;;;14.05;59.33;101275.19;5058160;28;45471;-82
2022/05/05 00:53:05;;;;;;;;;10.50;9.25;;;;;13.97;59.64;101278.03;5064744;28;46441;-82
2022/05/05 00:55:37;;;;;;;;;6.75;5.00;;;;;13.87;59.53;101271.19;5062649;28;45320;-83
2022/05/05 00:58:04;;;;;;;;;9.25;8.25;;;;;13.89;59.64;101279.97;5057075;28;45392;-82
2022/05/05 01:00:32;;;;;;;;;7.00;7.00;;;;;13.82;59.79;101281.03;5055807;28;45480;-83
2022/05/05 01:02:59;;;;;;;;;10.00;9.00;;;;;13.78;60.23;101280.22;5057621;28;46511;-79
2022/05/05 01:05:26;;;;;;;;;4.75;4.75;;;;;13.75;60.27;101290.06;5057540;28;45422;-81
2022/05/05 01:07:52;;;;;;;;;8.75;8.50;;;;;13.66;60.05;101278.72;5062283;28;45486;-82
2022/05/05 01:10:17;;;;;;;;;6.75;3.75;;;;;13.63;60.00;101273.47;5075791;28;45538;-82
2022/05/05 01:12:43;;;;;;;;;11.75;7.00;;;;;13.64;59.92;101277.00;5077342;27;45468;-82
2022/05/05 01:15:09;;;;;;;;;9.75;6.75;;;;;13.59;60.24;101277.09;5079476;27;45483;-82
2022/05/05 01:17:35;;;;;;;;;10.00;6.25;;;;;13.59;59.90;101287.72;5075809;28;45300;-83
2022/05/05 01:20:17;;;;;;;;;8.00;4.00;;;;;13.61;59.71;101282.38;5079129;27;45473;-82
2022/05/05 01:22:42;;;;;;;;;6.25;4.00;;;;;13.56;59.77;101287.81;5072525;27;45455;-82
2022/05/05 01:30:44;;;;;;;;;7.75;3.75;;;;;13.50;59.86;101285.28;5059944;28;45429;-82
2022/05/05 01:33:14;;;;;;;;;5.00;4.75;;;;;13.45;60.25;101281.81;5060120;28;45466;-82
2022/05/05 01:35:41;;;;;;;;;4.00;4.00;;;;;13.43;59.84;101281.00;5056871;28;45322;-81
2022/05/05 01:38:08;;;;;;;;;11.25;8.50;;;;;13.41;60.54;101289.00;5055709;28;45441;-82
2022/05/05 01:40:37;;;;;;;;;9.75;8.00;;;;;13.42;60.66;101282.78;5055781;28;45509;-81
2022/05/05 01:43:03;;;;;;;;;5.00;4.00;;;;;13.40;60.63;101283.72;5057241;28;46232;-82
2022/05/05 01:45:30;;;;;;;;;8.00;8.00;;;;;13.36;60.58;101279.34;5058836;28;45311;-82
2022/05/05 01:47:55;;;;;;;;;4.00;4.00;;;;;13.31;60.45;101280.28;5057719;28;45703;-83
2022/05/05 01:50:20;;;;;;;;;3.00;3.00;;;;;13.27;60.70;101278.63;5063810;28;45313;-82
2022/05/05 01:52:47;;;;;;;;;7.00;7.00;;;;;13.29;60.61;101274.13;5076350;27;45405;-81
2022/05/05 01:55:12;;;;;;;;;5.00;5.00;;;;;13.25;60.88;101280.41;5083444;27;45365;-82
2022/05/05 01:57:38;;;;;;;;;5.50;5.50;;;;;13.23;60.84;101279.56;5079719;27;45318;-82
2022/05/05 02:00:04;;;;;;;;;6.00;5.50;;;;;13.20;60.90;101273.47;5079358;27;45409;-81
2022/05/05 02:02:29;;;;;;;;;1.00;1.00;;;;;13.18;60.88;101281.47;5077735;27;45362;-81
2022/05/05 02:04:54;;;;;;;;;7.00;7.00;;;;;13.12;60.62;101274.47;5060470;27;45386;-82
2022/05/05 02:07:19;;;;;;;;;4.00;4.00;;;;;13.05;60.82;101271.97;5057099;28;45380;-82
2022/05/05 02:09:45;;;;;;;;;10.00;3.25;;;;;13.02;60.43;101285.31;5057526;28;45387;-81
2022/05/05 02:12:10;;;;;;;;;3.75;3.75;;;;;12.97;60.98;101283.59;5080972;28;45961;-81
2022/05/05 02:14:36;;;;;;;;;5.50;3.75;;;;;12.96;60.70;101283.63;5077879;27;45449;-82
2022/05/05 02:17:01;;;;;;;;;3.50;3.50;;;;;12.89;61.28;101282.00;5076599;27;45436;-82
2022/05/05 02:19:26;;;;;;;;;9.00;6.75;;;;;12.86;61.27;101288.25;5060543;28;45718;-82
2022/05/05 02:21:52;;;;;;;;;7.25;5.00;;;;;12.86;61.24;101288.25;5055987;28;45871;-81
2022/05/05 02:24:17;;;;;;;;;3.50;3.50;;;;;12.73;61.43;101265.50;5059148;28;45397;-83
2022/05/05 02:26:42;;;;;;;;;6.25;6.00;;;;;12.70;62.01;101270.84;5063316;28;45366;-82
2022/05/05 02:29:08;;;;;;;;;12.75;4.50;;;;;12.77;61.81;101286.63;5054772;28;45615;-82
2022/05/05 02:31:34;;;;;;;;;6.25;6.00;;;;;12.73;62.11;101282.28;5057592;28;45857;-81
2022/05/05 02:33:59;;;;;;;;;7.00;7.00;;;;;12.68;62.34;101288.56;5056636;28;45385;-81
2022/05/05 02:39:09;;;;;;;;;8.25;8.25;;;;;12.65;63.09;101278.00;5078423;28;45339;-81
2022/05/05 02:41:35;;;;;;;;;6.25;4.00;;;;;12.61;63.06;101278.06;5075245;27;46091;-82
2022/05/05 02:44:00;;;;;;;;;11.00;10.00;;;;;12.54;63.38;101267.56;5075913;27;45705;-81
2022/05/05 02:46:26;;;;;;;;;11.00;3.25;;;;;12.55;63.74;101272.00;5077789;28;45790;-82
2022/05/05 02:48:51;;;;;;;;;2.50;2.50;;;;;12.45;63.97;101258.03;5067649;27;45672;-83
2022/05/05 02:51:17;;;;;;;;;6.50;6.50;;;;;12.50;64.54;101266.78;5064733;27;46161;-80
2022/05/05 02:56:26;;;;;;;;;5.00;4.50;;;;;12.43;64.96;101267.75;5066145;28;45418;-81
2022/05/05 02:58:53;;;;;;;;;12.00;6.50;;;;;12.46;65.09;101273.00;5060075;28;45439;-82
2022/05/05 03:01:18;;;;;;;;;9.25;7.50;;;;;12.42;65.41;101274.00;5078913;28;46011;-82
2022/05/05 03:03:44;;;;;;;;;15.50;8.00;;;;;12.38;65.66;101265.19;5080303;27;45547;-83
2022/05/05 03:06:09;;;;;;;;;11.50;8.00;;;;;12.32;65.67;101260.00;5081323;27;45335;-82
2022/05/05 03:08:35;;;;;;;;;10.00;7.50;;;;;12.36;65.92;101276.72;5080333;27;45399;-82
2022/05/05 03:11:00;;;;;;;;;5.50;4.50;;;;;12.25;66.24;101253.03;5077919;27;46192;-82
2022/05/05 03:13:25;;;;;;;;;10.50;8.50;;;;;12.30;66.48;101272.41;5077916;27;45392;-82
2022/05/05 03:15:51;;;;;;;;;3.25;1.00;;;;;12.30;66.49;101275.06;5076261;28;45982;-82
2022/05/05 03:18:16;;;;;;;;;7.00;7.00;;;;;12.26;66.47;101265.41;5079131;27;45559;-83
2022/05/05 03:20:42;;;;;;;;;6.00;6.00;;;;;12.25;66.97;101275.13;5081150;27;45381;-80
2022/05/05 03:23:08;;;;;;;;;0.75;0.75;;;;;12.22;66.93;101275.19;5079269;27;45394;-82
2022/05/05 03:25:33;;;;;;;;;15.50;9.00;;;;;12.22;67.39;101271.63;5084253;27;45322;-83
2022/05/05 03:27:58;;;;;;;;;9.25;6.25;;;;;12.18;67.46;101267.31;5082589;27;45282;-83
2022/05/05 03:30:24;;;;;;;;;10.00;7.00;;;;;12.09;67.69;101263.03;5060512;27;46454;-82
2022/05/05 03:32:49;;;;;;;;;10.00;8.00;;;;;12.14;67.70;101279.72;5059187;28;45403;-83
2022/05/05 03:35:14;;;;;;;;;8.75;7.00;;;;;12.11;67.89;101268.28;5058472;28;45440;-82
2022/05/05 03:37:40;;;;;;;;;7.50;6.25;;;;;12.08;67.85;101270.06;5058024;28;45315;-82
2022/05/05 03:40:06;;;;;;;;;3.00;3.00;;;;;12.08;67.91;101274.50;5062988;28;46978;-81
2022/05/05 03:42:31;;;;;;;;;6.25;6.25;;;;;12.06;68.11;101276.31;5079005;28;45303;-82
2022/05/05 03:44:56;;;;;;;;;8.75;6.00;;;;;12.05;68.15;101274.56;5077934;27;45370;-82
2022/05/05 03:47:22;;;;;;;;;4.25;3.25;;;;;12.03;68.00;101273.72;5079637;28;45319;-82
2022/05/05 03:49:47;;;;;;;;;9.75;5.00;;;;;11.97;67.79;101289.69;5079097;27;45224;-82
2022/05/05 03:52:12;;;;;;;;;11.25;9.00;;;;;11.91;68.44;101283.53;5077411;28;45477;-82
2022/05/05 03:54:37;;;;;;;;;8.50;8.00;;;;;11.88;68.20;101283.59;5084966;27;45356;-82
2022/05/05 03:57:03;;;;;;;;;9.50;8.75;;;;;11.93;67.97;101290.63;5083602;27;45294;-82
2022/05/05 03:59:28;;;;;;;;;13.00;9.50;;;;;11.87;68.41;101289.81;5077449;27;45531;-82
2022/05/05 04:01:54;;;;;;;;;8.25;8.25;;;;;11.86;68.46;101277.44;5075734;27;45532;-82
2022/05/05 04:04:19;;;;;;;;;7.25;7.25;;;;;11.86;68.26;101289.81;5077772;27;45339;-82
2022/05/05 04:06:45;;;;;;;;;9.00;7.25;;;;;11.84;68.31;101284.53;5081464;27;45383;-82
2022/05/05 04:09:10;;;;;;;;;7.25;7.25;;;;;11.89;68.50;101293.28;5079217;28;46110;-82
2022/05/05 04:11:36;;;;;;;;;7.75;5.00;;;;;11.90;68.25;101289.75;5079589;27;45369;-83
2022/05/05 04:14:03;;;;;;;;;2.50;2.00;;;;;11.88;68.61;101288.88;5079534;28;45323;-81
2022/05/05 04:16:32;;;;;;;;;4.50;2.50;;;;;11.92;68.50;101297.69;5068454;28;45468;-83
2022/05/05 04:18:58;;;;;;;;;3.25;3.25;;;;;11.90;68.74;101300.34;5079308;28;45387;-82
2022/05/05 04:21:24;;;;;;;;;13.00;9.00;;;;;11.89;68.53;101290.63;5080069;27;45472;-83
2022/05/05 04:23:50;;;;;;;;;6.50;4.00;;;;;11.83;68.62;101293.38;5079040;27;45511;-82
2022/05/05 04:26:16;;;;;;;;;6.00;4.00;;;;;11.86;69.18;101301.28;5082865;27;45456;-82
2022/05/05 04:28:44;;;;;;;;;11.75;8.75;;;;;11.88;68.51;101299.47;5080055;27;45492;-79
2022/05/05 04:31:11;;;;;;;;;7.75;5.75;;;;;11.83;68.42;101293.38;5075075;28;45380;-78
2022/05/05 04:33:38;;;;;;;;;9.75;6.50;;;;;11.90;68.29;101318.00;5077010;27;45346;-80
2022/05/05 04:36:04;;;;;;;;;13.00;11.25;;;;;11.89;68.28;101317.13;5076265;27;45486;-78
2022/05/05 04:38:29;;;;;;;;;7.50;4.50;;;;;11.84;68.29;101308.38;5077010;28;45365;-79
2022/05/05 04:40:54;;;;;;;;;7.50;7.50;;;;;11.85;68.75;101318.06;5075954;27;45503;-78
2022/05/05 04:43:20;;;;;;;;;6.00;6.00;;;;;11.89;68.83;101322.44;5075487;28;45355;-77
2022/05/05 04:45:45;;;;;;;;;6.50;3.50;;;;;11.83;68.83;101306.63;5075374;27;45326;-80
2022/05/05 04:48:11;;;;;;;;;3.75;3.75;;;;;11.80;68.76;101311.97;5075506;28;47126;-79
2022/05/05 04:50:36;;;;;;;;;8.00;6.50;;;;;11.78;69.03;101316.41;5077992;28;45358;-84
2022/05/05 04:53:02;;;;;;;;;10.50;7.75;;;;;11.78;69.21;101313.75;5081029;27;45351;-83
2022/05/05 04:55:27;;;;;;;;;9.00;3.00;;;;;11.86;69.13;101324.25;5081356;27;45316;-83
2022/05/05 04:57:52;;;;;;;;;9.75;8.00;;;;;11.76;69.36;101307.59;5084132;27;46434;-83
2022/05/05 05:00:18;;;;;;;;;12.75;9.00;;;;;11.73;69.40;101297.91;5064065;27;45700;-82
2022/05/05 05:02:43;;;;;;;;;8.50;6.25;;;;;11.78;69.31;101307.56;5060059;28;45390;-83
2022/05/05 05:05:09;;;;;;;;;10.25;10.25;;;;;11.83;69.77;101325.16;5058375;28;45310;-82
2022/05/05 05:07:34;;;;;;;;;10.00;8.50;;;;;11.68;70.03;101288.28;5058181;28;46067;-82
2022/05/05 05:10:00;;;;;;;;;11.25;8.75;;;;;11.83;69.69;101319.88;5062319;28;45385;-82
2022/05/05 05:12:25;;;;;;;;;6.00;6.00;;;;;11.89;69.92;101334.81;5077721;27;45449;-83
2022/05/05 05:14:51;;;;;;;;;9.75;7.50;;;;;11.86;69.88;101322.47;5066443;27;45492;-82
2022/05/05 05:17:16;;;;;;;;;16.00;8.50;;;;;11.93;69.92;101330.38;5056885;28;45374;-82
2022/05/05 05:19:41;;;;;;;;;15.75;13.75;;;;;11.89;70.34;101330.38;5065491;28;45361;-83
2022/05/05 05:22:07;;;;;;;;;15.75;14.00;;;;;11.95;70.26;101341.81;5078082;27;45285;-83
2022/05/05 05:24:33;;;;;;;;;6.50;6.00;;;;;11.85;70.29;101319.84;5078283;27;45284;-82
2022/05/05 05:26:58;;;;;;;;;21.25;20.00;;;;;11.96;70.62;101335.63;5082394;27;45546;-82
2022/05/05 05:29:23;;;;;;;;;18.25;14.50;;;;;12.05;70.66;101351.38;5079286;27;45353;-83
2022/05/05 05:31:49;;;;;;;;;18.00;15.50;;;;;12.04;70.62;101339.03;5079309;27;45441;-81
2022/05/05 05:34:14;;;;;;;;;15.75;12.50;;;;;12.09;70.92;101339.84;5076499;28;45440;-83
2022/05/05 05:36:39;;;;;;;;;20.00;8.50;;;;;12.10;70.79;101349.56;5076933;28;51668;-82
2022/05/05 05:39:05;;;;;;;;;13.25;10.50;;;;;12.16;70.42;101359.19;5077409;27;45381;-83
2022/05/05 05:41:30;;;;;;;;;11.25;10.50;;;;;12.20;70.62;101356.47;5076617;27;45825;-82
2022/05/05 05:43:56;;;;;;;;;14.50;10.25;;;;;12.20;70.86;101356.47;5074718;27;45398;-83
2022/05/05 05:46:21;;;;;;;;;14.00;12.25;;;;;12.23;70.62;101358.22;5058511;28;46078;-83
2022/05/05 05:48:47;;;;;;;;;14.25;13.75;;;;;12.30;70.88;101361.63;5059041;28;45387;-84
2022/05/05 05:51:13;;;;;;;;;18.25;15.00;;;;;12.24;70.54;101347.59;5057688;28;45393;-83
2022/05/05 05:53:38;;;;;;;;;18.25;16.00;;;;;12.30;70.60;101351.03;5057228;28;45517;-83
2022/05/05 05:56:04;;;;;;;;;14.50;10.75;;;;;12.43;70.78;101365.84;5059281;28;48272;-82
2022/05/05 05:58:29;;;;;;;;;27.00;20.25;;;;;12.44;70.67;101365.84;5061003;28;45426;-83
2022/05/05 06:00:55;;;;;;;;;11.75;9.00;;;;;12.43;70.56;101356.16;5078675;27;45393;-83
2022/05/05 06:06:04;;;;;;;;;15.50;12.00;;;;;12.62;70.44;101362.03;5076017;28;45855;-83
2022/05/05 06:08:30;;;;;;;;;15.00;15.00;;;;;12.67;70.01;101361.09;5076273;27;45484;-78
2022/05/05 06:10:55;;;;;;;;;19.50;16.50;;;;;12.72;69.93;101359.22;5074909;27;45336;-77
2022/05/05 06:13:22;;;;;;;;;23.50;19.00;;;;;12.76;69.43;101351.19;5073203;27;45345;-77
2022/05/05 06:15:47;;;;;;;;;15.75;15.00;;;;;12.83;69.83;101359.03;5055171;28;46221;-78
2022/05/05 06:18:13;;;;;;;;;13.25;9.00;;;;;12.89;69.39;101367.78;5054926;28;45313;-79
2022/05/05 06:20:38;;;;;;;;;22.00;17.50;;;;;12.95;69.45;101367.69;5054959;28;45301;-79
2022/05/05 06:23:04;;;;;;;;;21.25;14.25;;;;;13.00;68.96;101364.03;5055237;28;45561;-78
2022/05/05 06:25:29;;;;;;;;;16.75;14.25;;;;;13.11;68.62;101367.41;5054177;28;46003;-79
2022/05/05 06:27:57;;;;;;;;;24.00;19.50;;;;;13.20;68.61;101366.38;5055710;28;45420;-77
2022/05/05 06:30:22;;;;;;;;;27.50;26.00;;;;;13.29;68.08;101375.03;5075453;27;45381;-78
2022/05/05 06:32:48;;;;;;;;;14.50;6.75;;;;;13.32;68.26;101369.66;5073934;28;45624;-78
2022/05/05 06:35:13;;;;;;;;;28.25;22.50;;;;;13.31;67.97;101373.19;5076100;27;45430;-82
2022/05/05 06:37:39;;;;;;;;;19.00;17.00;;;;;13.35;67.60;101375.88;5076942;27;45343;-82
2022/05/05 06:40:05;;;;;;;;;28.00;14.50;;;;;13.38;68.01;101375.81;5077169;27;45330;-80
2022/05/05 06:42:31;;;;;;;;;24.25;19.00;;;;;13.41;67.56;101391.69;5054866;28;45667;-80
2022/05/05 06:44:56;;;;;;;;;21.25;19.00;;;;;13.40;67.83;101369.53;5053585;28;45421;-77
2022/05/05 06:47:21;;;;;;;;;23.50;19.50;;;;;13.57;67.30;101387.78;5054353;28;45416;-78
2022/05/05 06:49:47;;;;;;;;;18.25;15.00;;;;;13.63;66.97;101378.84;5054702;28;45370;-78
2022/05/05 06:52:12;;;;;;;;;21.75;18.00;;;;;13.70;66.90;101387.56;5054851;28;45639;-79
2022/05/05 06:54:38;;;;;;;;;21.25;19.50;;;;;13.73;67.36;101391.03;5055244;28;45534;-78
2022/05/05 06:57:04;;;;;;;;;18.50;17.00;;;;;13.79;66.59;101398.00;5056178;28;45549;-79
2022/05/05 06:59:30;;;;;;;;;22.25;17.50;;;;;13.80;66.81;101395.31;5058479;28;45484;-77
2022/05/05 07:02:00;;;;;;;;;22.75;20.75;;;;;13.80;66.42;101400.63;5074469;27;45535;-75
2022/05/05 07:07:13;;;;;;;;;15.75;14.25;;;;;13.86;66.54;101395.19;5074469;28;45400;-78
2022/05/05 07:12:22;;;;;;;;;18.75;16.00;;;;;13.98;66.61;101404.72;5074675;28;45292;-78
2022/05/05 07:14:48;;;;;;;;;15.25;10.50;;;;;14.01;66.27;101411.72;5056413;27;46225;-79
2022/05/05 07:17:13;;;;;;;;;12.00;10.00;;;;;13.94;66.10;101402.13;5054126;28;45354;-79
2022/05/05 07:19:39;;;;;;;;;9.50;8.00;;;;;13.99;66.63;101411.75;5054115;28;45435;-78
2022/05/05 07:22:06;;;;;;;;;15.75;12.50;;;;;13.99;66.16;101417.06;5054153;27;45473;-78
2022/05/05 07:24:31;;;;;;;;;17.75;14.50;;;;;13.98;66.57;101419.75;5053529;28;45410;-79
2022/05/05 07:26:58;;;;;;;;;14.00;11.75;;;;;13.91;66.30;101413.69;5056374;28;45427;-77
2022/05/05 07:29:23;;;;;;;;;17.75;16.25;;;;;13.99;65.92;101419.72;5056458;28;45351;-79
2022/05/05 07:31:49;;;;;;;;;19.75;16.00;;;;;14.02;66.25;101424.09;5054980;28;45539;-78
2022/05/05 07:34:15;;;;;;;;;16.00;14.00;;;;;14.10;65.89;101424.81;5054585;28;45400;-78
2022/05/05 07:36:41;;;;;;;;;16.50;15.50;;;;;14.15;65.86;101427.38;5054234;28;45408;-78
2022/05/05 07:39:07;;;;;;;;;21.50;19.75;;;;;14.20;65.30;101421.06;5057300;28;45457;-78
2022/05/05 07:41:32;;;;;;;;;20.25;13.25;;;;;14.30;65.47;101427.06;5057076;28;45420;-78
2022/05/05 07:43:58;;;;;;;;;22.50;13.25;;;;;14.38;65.07;101418.91;5057141;28;45568;-77
2022/05/05 07:46:24;;;;;;;;;22.00;20.00;;;;;14.53;65.31;101425.63;5057027;28;45607;-79
2022/05/05 07:48:50;;;;;;;;;3.50;3.00;;;;;14.57;64.41;101432.66;5062746;28;45596;-78
2022/05/05 07:51:15;;;;;;;;;12.75;12.50;;;;;14.72;64.29;101429.66;5061289;28;45448;-78
2022/05/05 07:53:40;;;;;;;;;19.50;15.25;;;;;14.85;63.25;101434.69;5068795;28;45662;-79
2022/05/05 07:56:06;;;;;;;;;71.25;59.50;;;;;15.08;62.96;101432.34;5077418;27;45401;-78
2022/05/05 07:58:31;;;;;;;;;91.33;74.33;;;;;15.59;62.39;101436.34;5086012;27;45370;-78
2022/05/05 08:00:56;;;;;;;;;102.67;84.67;;;;;16.44;59.31;101428.59;5058459;28;45419;-78
2022/05/05 08:03:22;;;;;;;;;105.00;85.67;;;;;17.31;57.44;101425.78;5058317;28;45438;-79
2022/05/05 08:05:47;;;;;;;;;104.00;87.67;;;;;18.37;54.98;101410.31;5073980;28;45739;-78
2022/05/05 08:08:13;;;;;;;;;100.00;82.00;;;;;19.64;51.33;101422.88;5077429;27;45502;-78
2022/05/05 08:10:39;;;;;;;;;105.00;88.00;;;;;20.49;48.94;101415.44;5076651;28;45487;-79
2022/05/05 08:13:04;;;;;;;;;85.67;72.00;;;;;20.90;46.73;101409.88;5070015;27;45935;-78
2022/05/05 08:15:30;;;;;;;;;108.00;91.00;;;;;21.06;46.52;101418.91;5057504;28;45445;-82
2022/05/05 08:17:58;;;;;;;;;103.00;86.67;;;;;21.63;45.04;101415.13;5063588;28;45395;-77
2022/05/05 08:20:24;;;;;;;;;105.33;91.67;;;;;22.23;44.22;101419.94;5077965;28;45429;-83
2022/05/05 08:22:49;;;;;;;;;62.00;54.33;;;;;22.78;43.06;101415.94;5060911;27;45547;-79
2022/05/05 08:30:43;;;;;;;;;106.00;92.50;;;;;23.18;41.77;101415.44;5077408;28;45491;-82
2022/05/05 08:33:09;;;;;;;;;108.00;94.50;;;;;23.34;40.82;101415.41;5077372;27;45440;-78
2022/05/05 08:35:34;;;;;;;;;110.50;99.75;;;;;24.01;39.44;101404.97;5075275;28;45616;-77
2022/05/05 08:37:59;;;;;;;;;108.50;96.25;;;;;24.72;37.61;101410.31;5062376;27;45429;-78
2022/05/05 08:40:27;;;;;;;;;109.00;95.00;;;;;24.71;37.64;101414.00;5075651;28;45445;-82
2022/05/05 08:42:53;;;;;;;;;109.75;99.00;;;;;25.07;37.32;101410.66;5077060;27;45474;-82
2022/05/05 08:45:20;;;;;;;;;111.33;101.33;;;;;25.12;36.38;101411.22;5064405;27;45487;-83
2022/05/05 08:47:47;;;;;;;;;93.67;74.33;;;;;25.11;36.66;101422.13;5055012;28;45450;-84
2022/05/05 08:50:13;;;;;;;;;107.50;93.75;;;;;25.53;35.66;101418.31;5057925;28;45448;-81
2022/05/05 08:52:48;;;;;;;;;103.67;90.33;;;;;25.61;35.74;101414.22;5078028;28;45438;-81
2022/05/05 08:55:15;;;;;;;;;107.80;98.80;;;;;25.54;35.71;101424.63;5077846;27;45487;-83
2022/05/05 08:57:42;;;;;;;;;108.00;98.75;;;;;25.44;35.59;101424.38;5080876;28;45397;-83
2022/05/05 09:00:08;;;;;;;;;105.67;96.00;;;;;25.65;35.43;101434.69;5079726;27;45477;-82
2022/05/05 09:02:34;;;;;;;;;107.00;95.50;;;;;25.91;35.03;101422.00;5073372;28;47056;-82
2022/05/05 09:04:59;;;;;;;;;110.50;103.25;;;;;26.11;34.29;101422.44;5063357;28;45496;-82
2022/05/05 09:07:51;;;;;;;;;2.75;2.75;;;;;26.82;34.54;101428.09;5063946;28;45657;-79
2022/05/05 09:10:20;;;;;;;;;20.25;15.75;;;;;27.21;32.20;101426.00;5067637;28;46568;-78
2022/05/05 09:12:59;;;;;;;;;60.00;51.67;;;;;26.75;32.75;101430.38;5073481;28;46348;-78
2022/05/05 09:15:33;;;;;;;;;106.33;89.33;;;;;26.60;33.32;101435.97;5067140;28;45666;-78
2022/05/05 09:18:22;;;;;;;;;91.33;74.67;;;;;26.70;33.19;101433.44;5070258;27;45582;-78
2022/05/05 09:20:49;;;;;;;;;15.00;12.00;;;;;26.47;33.44;101420.72;5073354;28;45555;-76
2022/05/05 09:23:36;;;;;;;;;4.50;4.25;;;;;26.18;34.20;101430.00;5061731;27;45460;-78
2022/05/05 09:26:08;;;;;;;;;8.50;8.25;;;;;25.74;34.70;101427.78;5064513;28;45300;-79
2022/05/05 09:28:37;;;;;;;;;15.50;14.00;;;;;25.25;35.62;101429.28;5063188;27;45353;-77
2022/05/05 09:31:09;;;;;;;;;15.25;14.00;;;;;24.76;36.29;101431.63;5065710;28;45665;-78
2022/05/05 09:33:40;;;;;;;;;18.25;15.00;;;;;24.34;36.79;101422.69;5058145;28;46219;-77
2022/05/05 09:36:08;;;;;;;;;21.75;18.00;;;;;24.04;37.13;101441.72;5063958;28;45423;-80
2022/05/05 09:38:52;;;;;;;;;7.25;3.50;;;;;23.74;38.10;101437.22;5060762;28;45446;-81
2022/05/05 09:41:25;;;;;;;;;15.00;13.50;;;;;23.46;38.56;101433.53;5061488;28;45537;-82
2022/05/05 09:43:53;;;;;;;;;12.25;10.50;;;;;23.05;38.72;101423.38;5064160;27;45470;-81
2022/05/05 09:46:21;;;;;;;;;16.00;8.75;;;;;23.64;38.01;101445.03;5066892;28;45442;-81
2022/05/05 09:48:47;;;;;;;;;5.50;2.25;;;;;24.12;36.65;101439.38;5071094;27;45585;-82
2022/05/05 09:51:14;;;;;;;;;2.50;1.25;;;;;24.78;34.45;101426.13;5071286;28;45354;-81
2022/05/05 09:59:14;;;;;;;;;5.75;3.50;;;;;23.34;36.02;101427.03;5073137;28;45612;-82
2022/05/05 10:01:41;;;;;;;;;6.50;5.00;;;;;23.23;36.98;101435.78;5067241;27;45495;-81
2022/05/05 10:04:09;;;;;;;;;7.50;4.25;;;;;22.74;37.13;101405.44;5056504;28;45562;-82
2022/05/05 10:06:37;;;;;;;;;0.00;0.00;;;;;22.65;37.30;101434.66;5067288;28;45488;-79
2022/05/05 10:09:03;;;;;;;;;4.00;2.50;;;;;22.35;37.18;101439.97;5071827;27;45480;-78
2022/05/05 10:11:30;;;;;;;;;11.25;8.00;;;;;22.17;38.07;101439.97;5063959;27;45386;-81
2022/05/05 10:13:56;;;;;;;;;6.25;5.25;;;;;22.12;37.65;101438.50;5058225;28;45322;-78
2022/05/05 10:16:22;;;;;;;;;12.00;11.00;;;;;22.09;37.95;101444.94;5065782;27;45433;-77
2022/05/05 10:18:48;;;;;;;;;9.00;8.75;;;;;21.78;38.06;101443.88;5063074;27;45418;-78
2022/05/05 10:21:27;;;;;;;;;4.00;2.00;;;;;21.31;38.50;101428.41;5067788;28;45455;-80
2022/05/05 10:24:03;;;;;;;;;6.50;2.50;;;;;21.23;39.08;101446.75;5069495;27;46068;-78
2022/05/05 10:26:29;;;;;;;;;4.75;2.00;;;;;21.25;39.46;101413.44;5053559;28;45688;-78
2022/05/05 10:28:54;;;;;;;;;5.00;5.00;;;;;22.09;39.61;101439.56;5054842;28;45574;-77
2022/05/05 10:31:33;;;;;;;;;1.75;1.75;;;;;22.35;37.88;101448.03;5062155;28;45517;-78
2022/05/05 10:34:07;;;;;;;;;2.75;2.75;;;;;22.16;38.92;101442.75;5073143;27;46321;-80
2022/05/05 10:36:34;;;;;;;;;1.50;1.50;;;;;21.85;38.15;101438.16;5056573;27;45374;-79
2022/05/05 10:39:16;;;;;;;;;4.75;4.00;;;;;21.59;38.58;101443.13;5057706;28;45492;-78
2022/05/05 10:41:41;;;;;;;;;2.00;2.00;;;;;21.11;38.34;101440.19;5067876;28;45626;-80
2022/05/05 10:44:16;;;;;;;;;7.75;4.25;;;;;20.71;39.36;101440.34;5064753;28;46008;-79
2022/05/05 10:46:54;;;;;;;;;4.00;4.00;;;;;20.42;39.62;101444.38;5061596;27;45429;-79
2022/05/05 10:49:32;;;;;;;;;1.25;1.25;;;;;20.13;40.07;101453.81;5065896;28;45564;-78
2022/05/05 10:52:16;;;;;;;;;8.75;7.00;;;;;19.97;40.32;101449.16;5060957;28;45577;-77
2022/05/05 10:54:44;;;;;;;;;7.75;6.00;;;;;19.91;40.54;101438.72;5056503;28;45470;-78
2022/05/05 10:57:24;;;;;;;;;4.00;3.00;;;;;20.04;41.62;101450.63;5058766;28;45523;-78
2022/05/05 11:00:09;;;;;;;;;5.50;4.25;;;;;20.20;41.44;101433.81;5061750;28;45438;-79
2022/05/05 11:02:36;;;;;;;;;6.00;4.50;;;;;20.33;41.53;101434.97;5065627;28;45547;-79
2022/05/05 11:05:20;;;;;;;;;4.25;4.25;;;;;20.40;40.96;101439.09;5070554;28;46480;-78
2022/05/05 11:07:49;;;;;;;;;6.50;5.00;;;;;20.39;40.88;101434.69;5057108;28;45489;-79
2022/05/05 11:13:39;;;;;;;;;0.25;0.00;;;;;20.47;40.39;101433.47;5056165;28;45430;-78
2022/05/05 11:22:06;;;;;;;;;7.00;5.75;;;;;20.62;40.32;101432.72;5057897;28;45459;-78
2022/05/05 11:24:31;;;;;;;;;74.25;63.25;;;;;20.70;40.60;101422.47;5068180;28;45501;-78
2022/05/05 11:26:57;;;;;;;;;2.25;0.50;;;;;20.68;39.94;101428.88;5070945;27;45677;-78
2022/05/05 11:29:27;;;;;;;;;4.00;1.00;;;;;20.38;40.25;101422.19;5060406;28;45435;-80
2022/05/05 11:31:57;;;;;;;;;63.75;56.25;;;;;20.15;40.43;101425.13;5061961;28;45542;-79
2022/05/05 11:34:29;;;;;;;;;87.33;73.00;;;;;19.95;40.88;101434.06;5067856;28;45506;-78
2022/05/05 11:36:57;;;;;;;;;88.00;72.33;;;;;19.81;41.61;101434.69;5066101;27;45625;-79
2022/05/05 11:39:22;;;;;;;;;62.25;55.00;;;;;19.65;41.33;101437.19;5068456;27;45467;-78
2022/05/05 11:42:05;;;;;;;;;5.00;2.25;;;;;19.58;41.46;101441.94;5070867;28;45474;-82
2022/05/05 11:44:35;;;;;;;;;2.00;1.00;;;;;19.52;41.66;101439.53;5055738;28;45344;-82
2022/05/05 11:47:10;;;;;;;;;72.00;62.00;;;;;19.45;41.48;101436.25;5058545;28;46244;-82
2022/05/05 11:49:35;;;;;;;;;14.25;14.25;;;;;19.42;41.25;101427.44;5060375;28;45380;-82
2022/05/05 11:52:02;;;;;;;;;93.33;76.67;;;;;19.50;42.00;101433.38;5069000;27;45483;-82
2022/05/05 11:54:30;;;;;;;;;2.75;2.25;;;;;19.69;42.09;101428.94;5069656;27;45669;-82
2022/05/05 11:56:55;;;;;;;;;2.25;2.25;;;;;19.78;41.40;101432.16;5067311;28;47069;-78
2022/05/05 12:02:10;;;;;;;;;2.50;2.25;;;;;19.92;41.59;101428.84;5070984;28;45353;-78
2022/05/05 12:04:39;;;;;;;;;8.00;8.00;;;;;19.94;41.14;101424.31;5063033;28;45478;-78